Time;durP1;ratioP1;P1;durP2;ratioP2;P2;SDS_P1;SDS_P2;PMS_P1;PMS_P2;Temp;Humidity;BMP_temperature;BMP_pressure;BME280_temperature;BME280_humidity;BME280_pressure;Samples;Min_cycle;Max_cycle;Signal;HPM_P1;HPM_P2
2022/01/17 00:01:13;;;;;;;;;;;5.00;99.90;;;;;;5097790;28;19966;-66
2022/01/17 00:03:41;;;;;;;;;;;5.00;99.90;;;;;;5079807;28;19947;-66
2022/01/17 00:06:07;;;;;;;;;;;5.00;99.90;;;;;;5097889;28;19904;-66
2022/01/17 00:08:40;;;;;;;;;;;5.00;99.90;;;;;;5098233;28;19985;-66
2022/01/17 00:11:11;;;;;;;;;;;5.10;99.90;;;;;;5098382;28;20227;-66
2022/01/17 00:13:40;;;;;;;;;;;5.10;99.90;;;;;;5098480;28;20458;-66
2022/01/17 00:21:04;;;;;;;;;;;5.00;99.90;;;;;;5098484;28;19904;-67
2022/01/17 00:23:31;;;;;;;;;;;5.00;99.90;;;;;;5098569;28;19904;-66
2022/01/17 00:25:58;;;;;;;;;;;5.00;99.90;;;;;;5098536;28;19904;-66
2022/01/17 00:28:25;;;;;;;;;;;5.00;99.90;;;;;;5098124;28;19927;-66
2022/01/17 00:30:52;;;;;;;;;;;5.10;99.90;;;;;;5097133;28;20215;-66
2022/01/17 00:33:19;;;;;;;;;;;5.00;99.90;;;;;;5097616;28;20208;-66
2022/01/17 00:35:47;;;;;;;;;;;5.00;99.90;;;;;;5097726;28;19936;-66
2022/01/17 00:38:14;;;;;;;;;;;5.10;99.90;;;;;;5097415;28;19908;-66
2022/01/17 00:40:44;;;;;;;;;;;5.10;99.90;;;;;;5097754;28;19904;-66
2022/01/17 00:43:12;;;;;;;;;;;5.00;99.90;;;;;;5097016;28;19994;-66
2022/01/17 00:45:41;;;;;;;;;;;5.10;99.90;;;;;;5097928;28;19919;-67
2022/01/17 00:48:08;;;;;;;;;;;5.10;99.90;;;;;;5097036;28;19911;-66
2022/01/17 00:50:37;;;;;;;;;;;5.10;99.90;;;;;;5097728;28;19904;-66
2022/01/17 00:53:06;;;;;;;;;;;5.10;99.90;;;;;;5097996;28;19904;-66
2022/01/17 00:55:33;;;;;;;;;;;5.10;99.90;;;;;;5098715;28;19926;-66
2022/01/17 00:58:00;;;;;;;;;;;5.10;99.90;;;;;;5079978;28;19911;-66
2022/01/17 01:00:28;;;;;;;;;;;5.10;99.90;;;;;;5098536;28;19911;-67
2022/01/17 01:02:54;;;;;;;;;;;5.20;99.90;;;;;;5098188;28;20207;-67
2022/01/17 01:05:21;;;;;;;;;;;5.20;99.90;;;;;;5098347;28;19908;-66
2022/01/17 01:07:50;;;;;;;;;;;5.20;99.90;;;;;;5098036;28;20295;-66
2022/01/17 01:10:17;;;;;;;;;;;5.20;99.90;;;;;;5097799;28;19922;-66
2022/01/17 01:12:46;;;;;;;;;;;5.20;99.90;;;;;;5097561;28;19904;-66
2022/01/17 01:15:20;;;;;;;;;;;5.20;99.90;;;;;;5097169;28;19904;-67
2022/01/17 01:18:15;;;;;;;;;;;5.20;99.90;;;;;;5089513;28;19923;-67
2022/01/17 01:28:40;;;;;;;;;;;5.20;99.90;;;;;;5097345;28;19954;-66
2022/01/17 01:31:16;;;;;;;;;;;5.10;99.90;;;;;;5096987;28;19910;-66
2022/01/17 01:33:51;;;;;;;;;;;5.10;99.90;;;;;;5096728;28;19957;-67
2022/01/17 01:36:25;;;;;;;;;;;5.10;99.90;;;;;;5098179;28;19908;-66
2022/01/17 01:38:53;;;;;;;;;;;5.10;99.90;;;;;;5097323;28;20048;-66
2022/01/17 01:41:20;;;;;;;;;;;5.10;99.90;;;;;;5098111;28;19908;-66
2022/01/17 01:43:47;;;;;;;;;;;5.10;99.90;;;;;;5083470;28;19904;-66
2022/01/17 01:46:18;;;;;;;;;;;5.10;99.90;;;;;;5084233;28;20045;-66
2022/01/17 01:48:46;;;;;;;;;;;5.10;99.90;;;;;;5101679;28;19904;-66
2022/01/17 01:51:13;;;;;;;;;;;5.10;99.90;;;;;;5101463;28;20004;-66
2022/01/17 01:53:40;;;;;;;;;;;5.00;99.90;;;;;;5101076;28;20007;-66
2022/01/17 01:56:08;;;;;;;;;;;5.00;99.90;;;;;;5100307;28;20220;-66
2022/01/17 01:58:36;;;;;;;;;;;5.00;99.90;;;;;;5082195;28;19915;-66
2022/01/17 02:01:03;;;;;;;;;;;5.00;99.90;;;;;;5100938;28;19930;-66
2022/01/17 02:03:30;;;;;;;;;;;4.90;99.90;;;;;;5100081;28;19991;-66
2022/01/17 02:05:57;;;;;;;;;;;4.90;99.90;;;;;;5100085;28;19940;-67
2022/01/17 02:08:24;;;;;;;;;;;4.90;99.90;;;;;;5099886;28;19950;-67
2022/01/17 02:10:51;;;;;;;4.25;1.08;;;4.90;99.90;;;;;;5099158;28;20395;-66
2022/01/17 02:13:19;;;;;;;10.55;2.65;;;4.90;99.90;;;;;;5099553;28;20103;-66
2022/01/17 02:15:47;;;;;;;1.92;0.70;;;4.90;99.90;;;;;;5099746;28;20028;-66
2022/01/17 02:18:22;;;;;;;6.20;0.90;;;4.90;99.90;;;;;;5078806;28;20049;-66
2022/01/17 02:23:36;;;;;;;7.45;1.13;;;4.90;99.90;;;;;;5079937;28;20099;-66
2022/01/17 02:26:04;;;;;;;4.88;0.93;;;4.90;99.90;;;;;;5078973;28;20066;-66
2022/01/17 02:28:36;;;;;;;5.85;2.42;;;4.90;99.90;;;;;;5079960;28;20053;-66
2022/01/17 02:31:07;;;;;;;15.15;2.40;;;4.90;99.90;;;;;;5080008;28;20416;-66
2022/01/17 02:33:35;;;;;;;7.88;1.58;;;4.80;99.90;;;;;;5079799;28;20101;-66
2022/01/17 02:36:03;;;;;;;8.88;1.30;;;4.80;99.90;;;;;;5078440;28;20035;-66
2022/01/17 02:38:31;;;;;;;6.03;1.00;;;4.80;99.90;;;;;;5077585;28;20336;-66
2022/01/17 02:40:58;;;;;;;4.57;1.35;;;4.80;99.90;;;;;;5079100;28;20013;-66
2022/01/17 02:43:27;;;;;;;3.72;1.08;;;4.70;99.90;;;;;;5079274;28;20021;-66
2022/01/17 02:48:24;;;;;;;5.55;0.70;;;4.70;99.90;;;;;;5078948;28;20025;-66
2022/01/17 02:50:51;;;;;;;6.13;1.20;;;4.70;99.90;;;;;;5079152;28;20021;-66
2022/01/17 02:53:19;;;;;;;6.55;1.67;;;4.70;99.90;;;;;;5077523;28;20032;-66
2022/01/17 02:55:52;;;;;;;3.67;1.00;;;4.70;99.90;;;;;;5078604;28;20052;-66
2022/01/17 02:58:22;;;;;;;7.78;0.82;;;4.70;99.90;;;;;;5078770;28;20371;-66
2022/01/17 03:00:53;;;;;;;3.45;0.52;;;4.70;99.90;;;;;;5079417;28;20103;-66
2022/01/17 03:03:26;;;;;;;7.32;0.85;;;4.70;99.90;;;;;;5079162;28;20024;-66
2022/01/17 03:05:55;;;;;;;3.92;1.08;;;4.70;99.90;;;;;;5079444;28;20021;-66
2022/01/17 03:08:24;;;;;;;7.60;0.90;;;4.70;99.90;;;;;;5078906;28;20032;-66
2022/01/17 03:10:53;;;;;;;3.08;1.38;;;4.70;99.90;;;;;;5079095;28;20377;-66
2022/01/17 03:13:31;;;;;;;9.60;0.88;;;4.70;99.90;;;;;;5078023;28;20028;-66
2022/01/17 03:16:01;;;;;;;7.47;1.02;;;4.70;99.90;;;;;;5079149;28;20328;-66
2022/01/17 03:18:39;;;;;;;4.85;1.13;;;4.70;99.90;;;;;;5084335;28;20048;-66
2022/01/17 03:21:08;;;;;;;11.30;1.10;;;4.70;99.90;;;;;;5098228;28;20356;-66
2022/01/17 03:23:36;;;;;;;7.53;1.13;;;4.70;99.90;;;;;;5098180;28;20049;-66
2022/01/17 03:26:05;;;;;;;5.40;0.88;;;4.70;99.90;;;;;;5080419;28;20024;-66
2022/01/17 03:28:33;;;;;;;13.25;1.30;;;4.70;99.90;;;;;;5098283;28;20034;-66
2022/01/17 03:31:00;;;;;;;8.38;1.85;;;4.70;99.90;;;;;;5080124;28;20059;-66
2022/01/17 03:33:28;;;;;;;5.93;0.90;;;4.70;99.90;;;;;;5098002;28;20020;-66
2022/01/17 03:35:56;;;;;;;8.43;1.15;;;4.70;99.90;;;;;;5098148;28;20477;-66
2022/01/17 03:38:27;;;;;;;2.10;1.05;;;4.70;99.90;;;;;;5079771;28;20031;-66
2022/01/17 03:40:55;;;;;;;10.68;1.23;;;4.70;99.90;;;;;;5098289;28;20020;-66
2022/01/17 03:43:24;;;;;;;4.47;1.55;;;4.70;99.90;;;;;;5098887;28;20021;-66
2022/01/17 03:45:51;;;;;;;7.15;1.27;;;4.70;99.90;;;;;;5098913;28;20095;-66
2022/01/17 03:48:19;;;;;;;10.60;1.77;;;4.80;99.90;;;;;;5080691;28;20035;-66
2022/01/17 03:50:48;;;;;;;2.90;0.75;;;4.70;99.90;;;;;;5098961;28;20420;-66
2022/01/17 03:53:15;;;;;;;10.48;1.40;;;4.80;99.90;;;;;;5098441;28;20028;-66
2022/01/17 03:55:43;;;;;;;4.80;1.33;;;4.70;99.90;;;;;;5098790;28;20458;-66
2022/01/17 03:58:10;;;;;;;9.82;2.45;;;4.80;99.90;;;;;;5080361;28;20035;-66
2022/01/17 04:00:43;;;;;;;6.55;0.93;;;4.80;99.90;;;;;;5080446;28;20047;-66
2022/01/17 04:03:11;;;;;;;4.88;0.90;;;4.80;99.90;;;;;;5079440;28;20059;-66
2022/01/17 04:05:39;;;;;;;4.60;1.17;;;4.70;99.90;;;;;;5098160;28;20300;-66
2022/01/17 04:08:06;;;;;;;8.45;1.17;;;4.70;99.90;;;;;;5097344;28;20058;-66
2022/01/17 04:10:34;;;;;;;3.95;0.80;;;4.80;99.90;;;;;;5079787;28;20047;-66
2022/01/17 04:13:03;;;;;;;4.03;1.13;;;4.80;99.90;;;;;;5097235;28;20024;-66
2022/01/17 04:15:35;;;;;;;7.78;1.30;;;4.80;99.90;;;;;;5097686;28;20020;-66
2022/01/17 04:18:05;;;;;;;5.03;1.20;;;4.80;99.90;;;;;;5096960;28;20055;-66
2022/01/17 04:20:33;;;;;;;7.90;1.80;;;4.80;99.90;;;;;;5097205;28;20117;-66
2022/01/17 04:23:06;;;;;;;8.40;0.95;;;4.80;99.90;;;;;;5097480;28;20025;-66
2022/01/17 04:25:35;;;;;;;8.02;1.02;;;4.80;99.90;;;;;;5098212;28;20020;-66
2022/01/17 04:28:04;;;;;;;10.35;1.48;;;4.80;99.90;;;;;;5097846;28;20024;-66
2022/01/17 04:30:31;;;;;;;11.05;1.25;;;4.80;99.90;;;;;;5097985;28;20049;-66
2022/01/17 04:32:59;;;;;;;11.88;1.60;;;4.80;99.90;;;;;;5079887;28;20027;-66
2022/01/17 04:35:29;;;;;;;5.65;1.63;;;4.80;99.90;;;;;;5080062;28;20025;-66
2022/01/17 04:37:59;;;;;;;4.32;1.30;;;4.80;99.90;;;;;;5079754;28;20031;-66
2022/01/17 04:40:34;;;;;;;6.95;0.80;;;4.80;99.90;;;;;;5098358;28;20316;-66
2022/01/17 04:43:04;;;;;;;11.80;2.05;;;4.80;99.90;;;;;;5096992;28;20062;-66
2022/01/17 04:45:33;;;;;;;7.47;1.70;;;4.80;99.90;;;;;;5097166;28;20021;-66
2022/01/17 04:48:00;;;;;;;4.15;0.88;;;4.80;99.90;;;;;;5096667;28;20027;-66
2022/01/17 04:50:28;;;;;;;10.30;1.83;;;4.80;99.90;;;;;;5096674;28;20435;-66
2022/01/17 04:52:58;;;;;;;6.90;1.00;;;4.80;99.90;;;;;;5096568;28;20035;-66
2022/01/17 04:55:26;;;;;;;6.88;1.98;;;4.80;99.90;;;;;;5096660;28;20024;-66
2022/01/17 04:57:56;;;;;;;11.63;1.60;;;4.80;99.90;;;;;;5096628;28;20020;-66
2022/01/17 05:00:25;;;;;;;4.32;1.42;;;4.80;99.90;;;;;;5096544;28;20107;-66
2022/01/17 05:02:52;;;;;;;9.45;1.25;;;4.80;99.90;;;;;;5096836;28;20131;-66
2022/01/17 05:05:20;;;;;;;15.52;2.65;;;4.80;99.90;;;;;;5097610;28;20104;-66
2022/01/17 05:07:48;;;;;;;4.70;0.85;;;4.80;99.90;;;;;;5097349;28;20020;-66
2022/01/17 05:10:17;;;;;;;9.00;2.20;;;4.80;99.90;;;;;;5079474;28;20020;-66
2022/01/17 05:12:45;;;;;;;12.20;1.42;;;4.80;99.90;;;;;;5097445;28;20073;-66
2022/01/17 05:15:26;;;;;;;17.77;1.90;;;4.80;99.90;;;;;;5079447;28;20025;-66
2022/01/17 05:20:42;;;;;;;10.13;2.65;;;4.80;99.90;;;;;;5101840;28;20028;-66
2022/01/17 05:23:10;;;;;;;5.85;1.15;;;4.70;99.90;;;;;;5101428;28;20042;-66
2022/01/17 05:25:37;;;;;;;8.02;1.50;;;4.80;99.90;;;;;;5083136;28;20089;-66
2022/01/17 05:28:05;;;;;;;12.82;1.90;;;4.80;99.90;;;;;;5100434;28;20028;-66
2022/01/17 05:30:33;;;;;;;13.45;1.98;;;4.80;99.90;;;;;;5100499;28;20420;-66
2022/01/17 05:33:00;;;;;;;14.95;1.48;;;4.80;99.90;;;;;;5099274;28;20393;-66
2022/01/17 05:35:28;;;;;;;10.25;1.17;;;4.80;99.90;;;;;;5082361;28;20020;-66
2022/01/17 05:37:55;;;;;;;6.80;1.25;;;4.80;99.90;;;;;;5100095;28;20407;-66
2022/01/17 05:40:22;;;;;;;8.15;1.20;;;4.80;99.90;;;;;;5082282;28;20077;-66
2022/01/17 05:42:50;;;;;;;7.65;1.45;;;4.80;99.90;;;;;;5082200;28;20120;-66
2022/01/17 05:45:17;;;;;;;8.20;2.30;;;4.80;99.90;;;;;;5100182;28;20024;-66
2022/01/17 05:47:46;;;;;;;6.43;1.40;;;4.80;99.90;;;;;;5100671;28;20044;-66
2022/01/17 05:50:14;;;;;;;8.73;1.15;;;4.90;99.90;;;;;;5101068;28;20058;-66
2022/01/17 05:52:43;;;;;;;10.10;1.90;;;4.80;99.90;;;;;;5100677;28;20081;-66
2022/01/17 05:55:13;;;;;;;6.85;1.85;;;4.80;99.90;;;;;;5100835;28;20024;-66
2022/01/17 05:57:41;;;;;;;20.00;1.63;;;4.90;99.90;;;;;;5100721;28;20048;-66
2022/01/17 06:00:12;;;;;;;4.30;1.48;;;4.90;99.90;;;;;;5100704;28;20388;-66
2022/01/17 06:02:39;;;;;;;8.82;2.13;;;4.90;99.90;;;;;;5101030;28;20393;-66
2022/01/17 06:05:07;;;;;;;10.70;1.85;;;4.80;99.90;;;;;;5100625;28;20031;-66
2022/01/17 06:07:35;;;;;;;5.53;0.98;;;4.80;99.90;;;;;;5100614;28;20169;-66
2022/01/17 06:10:02;;;;;;;11.45;2.05;;;4.80;99.90;;;;;;5099513;28;20051;-66
2022/01/17 06:12:30;;;;;;;3.63;0.68;;;4.70;99.90;;;;;;5081763;28;20053;-66
2022/01/17 06:14:58;;;;;;;8.43;0.93;;;4.60;99.90;;;;;;5099582;28;20095;-66
2022/01/17 06:17:25;;;;;;;12.23;1.95;;;4.60;99.90;;;;;;5081993;28;20020;-66
2022/01/17 06:19:53;;;;;;;11.80;1.30;;;4.50;99.90;;;;;;5099214;28;20052;-66
2022/01/17 06:22:20;;;;;;;8.73;1.83;;;4.50;99.90;;;;;;5099535;28;20024;-66
2022/01/17 06:24:48;;;;;;;7.88;1.30;;;4.50;99.90;;;;;;5099195;28;20046;-66
2022/01/17 06:27:15;;;;;;;5.30;1.35;;;4.40;99.90;;;;;;5098841;28;20077;-66
2022/01/17 06:29:42;;;;;;;27.15;3.30;;;4.40;99.90;;;;;;5081607;28;20416;-66
2022/01/17 06:32:09;;;;;;;8.20;2.05;;;4.40;99.90;;;;;;5082100;28;20118;-66
2022/01/17 06:34:37;;;;;;;15.48;1.90;;;4.40;99.90;;;;;;5100010;28;20411;-66
2022/01/17 06:37:05;;;;;;;9.20;1.65;;;4.50;99.90;;;;;;5100322;28;20055;-66
2022/01/17 06:39:33;;;;;;;11.90;2.08;;;4.50;99.90;;;;;;5099716;28;20427;-66
2022/01/17 06:42:01;;;;;;;16.50;4.10;;;4.50;99.90;;;;;;5082396;28;20024;-66
2022/01/17 06:44:29;;;;;;;4.35;1.30;;;4.50;99.90;;;;;;5099745;28;20020;-66
2022/01/17 06:46:56;;;;;;;3.10;1.02;;;4.60;99.90;;;;;;5099976;28;20020;-66
2022/01/17 06:49:23;;;;;;;8.77;1.83;;;4.60;99.90;;;;;;5099942;28;20070;-66
2022/01/17 06:51:51;;;;;;;8.65;1.92;;;4.70;99.90;;;;;;5080867;28;20053;-65
2022/01/17 06:54:18;;;;;;;9.32;1.38;;;4.70;99.90;;;;;;5098718;28;20023;-66
2022/01/17 06:56:46;;;;;;;6.72;1.52;;;4.70;99.90;;;;;;5080928;28;20052;-65
2022/01/17 06:59:14;;;;;;;8.50;1.60;;;4.80;99.90;;;;;;5098838;28;20024;-68
2022/01/17 07:01:42;;;;;;;2.72;0.77;;;4.70;99.90;;;;;;5098733;28;20024;-68
2022/01/17 07:04:10;;;;;;;15.20;1.27;;;4.80;99.90;;;;;;5099133;28;20020;-69
2022/01/17 07:06:38;;;;;;;12.30;2.95;;;4.80;99.90;;;;;;5098782;28;20095;-76
2022/01/17 07:09:08;;;;;;;8.02;1.30;;;4.80;99.90;;;;;;5098345;28;20120;-69
2022/01/17 07:11:38;;;;;;;5.32;1.05;;;4.90;99.90;;;;;;5098698;28;20032;-69
2022/01/17 07:14:10;;;;;;;10.80;1.50;;;4.90;99.90;;;;;;5099233;28;20308;-69
2022/01/17 07:16:38;;;;;;;9.75;1.55;;;4.90;99.90;;;;;;5099406;28;20085;-69
2022/01/17 07:19:06;;;;;;;11.63;1.15;;;4.90;99.90;;;;;;5099007;28;20123;-69
2022/01/17 07:21:34;;;;;;;11.30;1.27;;;4.90;99.90;;;;;;5099196;28;20420;-69
2022/01/17 07:24:02;;;;;;;6.50;1.60;;;4.80;99.90;;;;;;5081073;28;20078;-72
2022/01/17 07:26:29;;;;;;;9.02;1.60;;;4.90;99.90;;;;;;5099163;28;20026;-69
2022/01/17 07:28:57;;;;;;;10.02;1.63;;;4.80;99.90;;;;;;5081031;28;20031;-72
2022/01/17 07:31:24;;;;;;;12.55;2.05;;;4.90;99.90;;;;;;5099268;28;20104;-67
2022/01/17 07:33:52;;;;;;;13.23;2.65;;;4.80;99.90;;;;;;5098261;28;20020;-69
2022/01/17 07:36:20;;;;;;;10.73;1.30;;;4.80;99.90;;;;;;5098075;28;20209;-70
2022/01/17 07:38:48;;;;;;;11.32;1.77;;;4.70;99.90;;;;;;5097524;28;20024;-68
2022/01/17 07:41:15;;;;;;;14.05;2.25;;;4.70;99.90;;;;;;5079662;28;20047;-67
2022/01/17 07:43:43;;;;;;;13.60;2.65;;;4.60;99.90;;;;;;5080198;28;20374;-69
2022/01/17 07:46:25;;;;;;;22.48;2.67;;;4.60;99.90;;;;;;5098520;28;20013;-70
2022/01/17 07:51:25;;;;;;;9.45;1.38;;;4.50;99.90;;;;;;5097703;28;20024;-69
2022/01/17 07:53:54;;;;;;;8.35;1.85;;;4.40;99.90;;;;;;5098169;28;20027;-69
2022/01/17 07:56:21;;;;;;;8.65;1.73;;;4.40;99.90;;;;;;5098507;28;20032;-66
2022/01/17 07:58:49;;;;;;;12.45;1.67;;;4.30;99.90;;;;;;5098431;28;20031;-67
2022/01/17 08:01:17;;;;;;;13.30;1.45;;;4.30;99.90;;;;;;5098329;28;20080;-66
2022/01/17 08:03:45;;;;;;;8.93;2.38;;;4.30;99.90;;;;;;5098894;28;20073;-67
2022/01/17 08:06:12;;;;;;;8.63;1.45;;;4.30;99.90;;;;;;5081133;28;20028;-67
2022/01/17 08:08:40;;;;;;;13.43;2.13;;;4.30;99.90;;;;;;5098275;28;20028;-67
2022/01/17 08:11:07;;;;;;;9.93;1.45;;;4.30;99.90;;;;;;5098792;28;20035;-67
2022/01/17 08:13:34;;;;;;;10.07;1.73;;;4.30;99.90;;;;;;5098208;28;20105;-68
2022/01/17 08:16:03;;;;;;;19.42;3.47;;;4.30;99.90;;;;;;5097520;28;20024;-72
2022/01/17 08:18:30;;;;;;;9.88;1.85;;;4.30;99.90;;;;;;5075659;28;20047;-65
2022/01/17 08:20:58;;;;;;;4.47;1.65;;;4.30;99.90;;;;;;5093605;28;20094;-65
2022/01/17 08:23:25;;;;;;;13.15;1.85;;;4.40;99.90;;;;;;5059049;28;20066;-65
2022/01/17 08:25:53;;;;;;;12.98;2.63;;;4.40;99.90;;;;;;5075893;28;20116;-65
2022/01/17 08:28:20;;;;;;;12.57;1.92;;;4.40;99.90;;;;;;5075646;28;20056;-66
2022/01/17 08:30:47;;;;;;;11.68;2.15;;;4.40;99.90;;;;;;5076783;28;20066;-67
2022/01/17 08:33:15;;;;;;;10.95;1.77;;;4.50;99.90;;;;;;5075587;28;20017;-69
2022/01/17 08:35:44;;;;;;;7.30;2.15;;;4.50;99.90;;;;;;5076999;28;20048;-67
2022/01/17 08:38:11;;;;;;;22.50;2.42;;;4.50;99.90;;;;;;5077589;28;20028;-67
2022/01/17 08:40:39;;;;;;;9.57;2.40;;;4.40;99.90;;;;;;5077699;28;20363;-67
2022/01/17 08:43:07;;;;;;;17.95;6.38;;;4.50;99.90;;;;;;5078017;28;20020;-67
2022/01/17 08:45:35;;;;;;;11.07;4.60;;;4.40;99.90;;;;;;5077567;28;20048;-67
2022/01/17 08:48:04;;;;;;;5.80;1.80;;;4.40;99.90;;;;;;5077372;28;20094;-67
2022/01/17 08:50:32;;;;;;;8.98;1.98;;;4.40;99.90;;;;;;5077287;28;20032;-67
2022/01/17 08:53:00;;;;;;;13.98;3.13;;;4.40;99.90;;;;;;5077353;28;20025;-66
2022/01/17 08:55:27;;;;;;;9.75;2.20;;;4.40;99.90;;;;;;5077475;28;20485;-66
2022/01/17 08:57:54;;;;;;;17.20;3.33;;;4.40;99.90;;;;;;5076751;28;20028;-66
2022/01/17 09:00:22;;;;;;;17.10;4.05;;;4.40;99.90;;;;;;5076361;28;20484;-66
2022/01/17 09:02:49;;;;;;;6.85;2.22;;;4.40;99.90;;;;;;5076340;28;20409;-66
2022/01/17 09:05:20;;;;;;;6.63;1.88;;;4.40;99.90;;;;;;5075341;28;20099;-65
2022/01/17 09:07:47;;;;;;;11.07;2.58;;;4.40;99.90;;;;;;5076310;28;20131;-67
2022/01/17 09:10:15;;;;;;;16.17;3.53;;;4.40;99.90;;;;;;5075163;28;20021;-67
2022/01/17 09:12:44;;;;;;;9.32;2.75;;;4.40;99.90;;;;;;5076577;28;20025;-67
2022/01/17 09:15:11;;;;;;;9.65;2.53;;;4.40;99.90;;;;;;5076179;28;20028;-71
2022/01/17 09:17:39;;;;;;;10.27;2.47;;;4.50;99.90;;;;;;5075511;28;20062;-68
2022/01/17 09:20:07;;;;;;;9.45;2.35;;;4.50;99.90;;;;;;5095360;28;20048;-67
2022/01/17 09:22:34;;;;;;;11.65;3.38;;;4.50;99.90;;;;;;5097245;28;20032;-67
2022/01/17 09:25:01;;;;;;;11.80;2.97;;;4.50;99.90;;;;;;5079792;28;20016;-69
2022/01/17 09:27:29;;;;;;;11.63;3.55;;;4.50;99.90;;;;;;5097211;28;20027;-69
2022/01/17 09:29:56;;;;;;;11.07;2.97;;;4.60;99.90;;;;;;5079596;28;20030;-69
2022/01/17 09:32:23;;;;;;;6.63;2.40;;;4.60;99.90;;;;;;5097282;28;20024;-70
2022/01/17 09:34:51;;;;;;;10.82;3.35;;;4.60;99.90;;;;;;5098079;28;20461;-70
2022/01/17 09:37:18;;;;;;;12.35;2.55;;;4.60;99.90;;;;;;5079358;28;20020;-68
2022/01/17 09:39:45;;;;;;;6.63;2.30;;;4.70;99.90;;;;;;5096191;28;20023;-68
2022/01/17 09:42:13;;;;;;;10.70;3.67;;;4.70;99.90;;;;;;5096432;28;20024;-69
2022/01/17 09:44:40;;;;;;;11.90;3.65;;;4.70;99.90;;;;;;5096003;28;20028;-69
2022/01/17 09:47:09;;;;;;;11.07;3.72;;;4.70;99.90;;;;;;5096780;28;20016;-69
2022/01/17 09:49:43;;;;;;;9.82;3.92;;;4.70;99.90;;;;;;5096152;28;20063;-70
2022/01/17 09:55:14;;;;;;;6.15;3.33;;;4.70;99.90;;;;;;5096450;28;20066;-69
2022/01/17 09:57:49;;;;;;;18.23;3.70;;;4.80;99.90;;;;;;5078156;28;20028;-68
2022/01/17 10:00:24;;;;;;;12.95;4.47;;;4.90;99.90;;;;;;5096478;28;20020;-68
2022/01/17 10:02:58;;;;;;;10.73;4.55;;;4.90;99.90;;;;;;5098320;28;20111;-69
2022/01/17 10:05:27;;;;;;;9.40;4.03;;;4.90;99.90;;;;;;5082749;28;20428;-69
2022/01/17 10:08:04;;;;;;;10.35;3.28;;;4.90;99.90;;;;;;5100607;28;20028;-68
2022/01/17 10:10:56;;;;;;;8.07;4.75;;;5.00;99.90;;;;;;5101442;28;20028;-68
2022/01/17 10:13:32;;;;;;;12.98;4.30;;;5.00;99.90;;;;;;5100355;28;20031;-68
2022/01/17 10:16:10;;;;;;;10.73;4.35;;;5.10;99.90;;;;;;5100618;28;20027;-68
2022/01/17 10:18:49;;;;;;;13.07;5.05;;;5.10;99.90;;;;;;5100616;28;20056;-68
2022/01/17 10:21:35;;;;;;;8.63;4.25;;;5.00;99.90;;;;;;5099744;28;20430;-68
2022/01/17 10:24:20;;;;;;;14.00;5.25;;;5.10;99.90;;;;;;5099377;28;20430;-68
2022/01/17 10:27:16;;;;;;;11.27;4.67;;;5.00;99.90;;;;;;5099350;28;20032;-69
2022/01/17 10:35:26;;;;;;;10.15;4.65;;;5.10;99.90;;;;;;5099774;28;20058;-68
2022/01/17 10:38:05;;;;;;;9.95;4.38;;;5.10;99.90;;;;;;5099134;28;20099;-67
2022/01/17 10:40:45;;;;;;;12.02;4.65;;;5.10;99.90;;;;;;5099348;28;20024;-68
2022/01/17 10:43:26;;;;;;;9.98;4.35;;;5.10;99.90;;;;;;5099916;28;20021;-71
2022/01/17 10:45:56;;;;;;;6.80;3.58;;;5.10;99.90;;;;;;5100495;28;20304;-69
2022/01/17 10:48:42;;;;;;;10.88;3.97;;;5.10;99.90;;;;;;5099868;28;20024;-71
2022/01/17 10:51:12;;;;;;;8.93;3.20;;;5.20;99.90;;;;;;5100584;28;20020;-71
2022/01/17 10:53:40;;;;;;;4.70;2.55;;;5.20;99.90;;;;;;5099944;28;20027;-71
2022/01/17 10:56:10;;;;;;;8.70;3.55;;;5.20;99.90;;;;;;5099892;28;20090;-74
2022/01/17 10:58:39;;;;;;;9.15;4.05;;;5.20;99.90;;;;;;5099613;28;20105;-70
2022/01/17 11:01:11;;;;;;;5.15;2.83;;;5.20;99.90;;;;;;5099398;28;20021;-71
2022/01/17 11:03:40;;;;;;;6.95;2.50;;;5.30;99.90;;;;;;5098982;28;20035;-69
2022/01/17 11:06:13;;;;;;;6.95;3.70;;;5.30;99.90;;;;;;5098811;28;20035;-68
2022/01/17 11:08:41;;;;;;;13.23;5.25;;;5.30;99.90;;;;;;5080644;28;20032;-72
2022/01/17 11:11:10;;;;;;;7.22;3.20;;;5.40;99.90;;;;;;5099412;28;20031;-72
2022/01/17 11:13:43;;;;;;;7.45;3.78;;;5.40;99.90;;;;;;5097996;28;20492;-69
2022/01/17 11:16:12;;;;;;;7.80;3.72;;;5.40;99.90;;;;;;5098134;28;20048;-70
2022/01/17 11:18:45;;;;;;;7.38;3.10;;;5.40;99.90;;;;;;5077064;28;20417;-69
2022/01/17 11:21:16;;;;;;;9.05;3.58;;;5.50;99.90;;;;;;5078023;28;20082;-70
2022/01/17 11:23:49;;;;;;;7.93;3.88;;;5.50;99.90;;;;;;5078508;28;20050;-72
2022/01/17 11:26:18;;;;;;;6.55;2.97;;;5.60;99.90;;;;;;5079527;28;20024;-69
2022/01/17 11:28:48;;;;;;;10.57;3.85;;;5.60;99.90;;;;;;5077727;28;20443;-66
2022/01/17 11:31:17;;;;;;;11.60;4.20;;;5.60;99.90;;;;;;5078864;28;20378;-66
2022/01/17 11:33:46;;;;;;;7.93;3.58;;;5.60;99.90;;;;;;5094646;28;20036;-66
2022/01/17 11:36:15;;;;;;;11.48;3.30;;;5.60;99.90;;;;;;5078817;28;20297;-66
2022/01/17 11:38:50;;;;;;;10.00;3.92;;;5.70;99.90;;;;;;5077454;28;20025;-66
2022/01/17 11:41:30;;;;;;;10.05;3.42;;;5.70;99.90;;;;;;5078999;28;20315;-66
2022/01/17 11:44:02;;;;;;;8.90;4.80;;;5.70;99.90;;;;;;5078731;28;20423;-66
2022/01/17 11:46:32;;;;;;;11.18;3.35;;;5.80;99.90;;;;;;5078168;28;20029;-66
2022/01/17 11:49:06;;;;;;;12.32;4.40;;;5.80;99.90;;;;;;5077575;28;20166;-66
2022/01/17 11:51:40;;;;;;;16.42;4.50;;;5.90;99.90;;;;;;5077409;28;20107;-65
2022/01/17 11:54:17;;;;;;;7.47;3.00;;;5.90;99.90;;;;;;5077321;28;20050;-67
2022/01/17 11:56:56;;;;;;;15.35;3.95;;;6.00;99.90;;;;;;5077952;28;20430;-67
2022/01/17 11:59:39;;;;;;;11.13;3.75;;;6.00;99.90;;;;;;5077226;28;20039;-68
2022/01/17 12:02:29;;;;;;;35.40;5.13;;;6.00;99.90;;;;;;5077802;28;20024;-68
2022/01/17 12:05:11;;;;;;;28.77;5.00;;;6.10;99.90;;;;;;5076121;28;20021;-68
2022/01/17 12:07:49;;;;;;;10.68;3.28;;;6.10;99.90;;;;;;5077865;28;20485;-68
2022/01/17 12:10:20;;;;;;;9.27;2.83;;;6.10;99.90;;;;;;5078157;28;20103;-68
2022/01/17 12:13:16;;;;;;;12.05;3.55;;;6.20;99.90;;;;;;5078268;28;20021;-68
2022/01/17 12:16:09;;;;;;;17.55;3.40;;;6.20;99.90;;;;;;5078522;28;20043;-68
2022/01/17 12:18:43;;;;;;;11.00;2.92;;;6.30;99.90;;;;;;5084069;28;20055;-68
2022/01/17 12:21:18;;;;;;;12.35;3.88;;;6.30;99.90;;;;;;5098219;28;20062;-68
2022/01/17 12:23:46;;;;;;;18.58;3.97;;;6.40;99.90;;;;;;5098343;28;20016;-68
2022/01/17 12:26:31;;;;;;;16.40;3.33;;;6.40;99.90;;;;;;5097584;28;20386;-68
2022/01/17 12:29:00;;;;;;;47.05;5.28;;;6.50;99.90;;;;;;5097418;28;20022;-68
2022/01/17 12:31:45;;;;;;;20.08;4.70;;;6.50;99.90;;;;;;5097766;28;20408;-68
2022/01/17 12:34:23;;;;;;;17.95;5.15;;;6.60;99.90;;;;;;5097438;28;20411;-68
2022/01/17 12:36:58;;;;;;;20.92;2.67;;;6.60;99.90;;;;;;5096917;28;20365;-68
2022/01/17 12:39:28;;;;;;;10.80;3.10;;;6.70;99.90;;;;;;5096714;28;20320;-68
2022/01/17 12:42:03;;;;;;;14.20;3.65;;;6.70;99.90;;;;;;5097001;28;20031;-68
2022/01/17 12:44:33;;;;;;;17.33;3.75;;;6.80;99.90;;;;;;5096723;28;20024;-68
2022/01/17 12:47:03;;;;;;;13.95;2.38;;;6.90;99.90;;;;;;5097092;28;20028;-68
2022/01/17 12:49:33;;;;;;;16.63;2.88;;;7.00;99.90;;;;;;5097705;28;20031;-67
2022/01/17 12:52:01;;;;;;;13.65;2.50;;;7.00;99.90;;;;;;5097783;28;20028;-68
2022/01/17 12:54:33;;;;;;;26.92;4.82;;;7.10;99.90;;;;;;5079971;28;20099;-68
2022/01/17 12:57:01;;;;;;;18.25;2.75;;;7.20;99.90;;;;;;5097617;28;20028;-68
2022/01/17 12:59:29;;;;;;;13.60;2.75;;;7.20;99.90;;;;;;5080244;28;20085;-68
2022/01/17 13:02:01;;;;;;;11.25;2.72;;;7.30;99.90;;;;;;5097598;28;20370;-68
2022/01/17 13:04:30;;;;;;;13.20;3.35;;;7.30;99.90;;;;;;5097986;28;20405;-68
2022/01/17 13:06:57;;;;;;;20.33;2.92;;;7.30;99.90;;;;;;5097934;28;20070;-68
2022/01/17 13:09:26;;;;;;;16.70;3.10;;;7.30;99.90;;;;;;5096532;28;20427;-68
2022/01/17 13:11:57;;;;;;;17.40;2.83;;;7.40;99.90;;;;;;5096742;28;20036;-68
2022/01/17 13:14:25;;;;;;;22.13;2.45;;;7.40;99.90;;;;;;5096663;28;20043;-70
2022/01/17 13:16:53;;;;;;;14.02;2.22;;;7.40;99.90;;;;;;5096480;28;20052;-68
2022/01/17 13:19:22;;;;;;;13.68;3.45;;;7.50;99.90;;;;;;5096061;28;20052;-69
2022/01/17 13:21:50;;;;;;;11.93;2.40;;;7.50;99.90;;;;;;5097108;28;20020;-68
2022/01/17 13:27:06;;;;;;;9.98;1.98;;;7.60;99.90;;;;;;5096656;28;20059;-69
2022/01/17 13:29:39;;;;;;;15.68;2.63;;;7.70;99.90;;;;;;5096555;28;20032;-70
2022/01/17 13:32:09;;;;;;;23.00;3.55;;;7.70;99.90;;;;;;5097357;28;20024;-69
2022/01/17 13:34:37;;;;;;;13.43;3.05;;;7.70;99.90;;;;;;5097257;28;20084;-68
2022/01/17 13:37:08;;;;;;;13.70;2.22;;;7.60;99.90;;;;;;5080367;28;20024;-69
2022/01/17 13:39:36;;;;;;;20.50;3.08;;;7.60;99.90;;;;;;5101260;28;20085;-68
2022/01/17 13:42:06;;;;;;;14.20;3.15;;;7.60;99.90;;;;;;5101152;28;20020;-68
2022/01/17 13:44:37;;;;;;;14.75;2.75;;;7.60;99.90;;;;;;5101338;28;20020;-70
2022/01/17 13:47:13;;;;;;;20.48;4.15;;;7.60;99.90;;;;;;5101167;28;20024;-74
2022/01/17 13:49:43;;;;;;;20.23;2.75;;;7.60;99.90;;;;;;5101059;28;20020;-70
2022/01/17 13:52:12;;;;;;;16.70;2.65;;;7.60;99.90;;;;;;5081993;28;20119;-69
2022/01/17 13:54:41;;;;;;;14.15;1.90;;;7.60;99.90;;;;;;5099828;28;20024;-68